createdAt,value
2022-11-02T00:22:56.226Z,1013.07
2022-11-02T00:23:56.614Z,1013.04
2022-11-02T00:24:59.033Z,1012.99
2022-11-02T00:26:02.219Z,1012.99
2022-11-02T00:40:21.639Z,1012.93
2022-11-02T00:46:03.027Z,1012.96
2022-11-02T00:47:03.031Z,1012.92
2022-11-02T00:48:03.392Z,1012.93
2022-11-02T00:49:03.043Z,1012.95
2022-11-02T00:50:03.042Z,1012.94
2022-11-02T00:51:03.053Z,1012.95
2022-11-02T00:52:03.060Z,1012.93
2022-11-02T00:53:03.058Z,1012.95
2022-11-02T00:54:03.069Z,1012.90
2022-11-02T00:55:03.068Z,1012.87
2022-11-02T00:56:03.101Z,1012.88
2022-11-02T00:57:03.081Z,1012.88
2022-11-02T00:58:03.614Z,1012.90
2022-11-02T00:59:03.090Z,1012.91
2022-11-02T01:00:03.104Z,1012.88
2022-11-02T01:01:04.168Z,1012.92
2022-11-02T01:02:03.191Z,1012.93
2022-11-02T01:03:03.119Z,1012.95
2022-11-02T01:04:03.116Z,1013.00
2022-11-02T01:05:03.130Z,1012.96
2022-11-02T01:06:03.134Z,1012.96
2022-11-02T01:07:03.141Z,1012.92
2022-11-02T01:08:03.570Z,1012.93
2022-11-02T01:09:03.141Z,1012.92
2022-11-02T01:10:03.155Z,1012.88
2022-11-02T01:11:03.152Z,1012.88
2022-11-02T01:12:03.179Z,1012.92
2022-11-02T01:13:03.172Z,1012.89
2022-11-02T01:14:03.176Z,1012.87
2022-11-02T01:15:03.173Z,1012.87
2022-11-02T01:16:03.183Z,1012.92
2022-11-02T01:17:03.191Z,1012.88
2022-11-02T01:18:03.623Z,1012.91
2022-11-02T01:19:03.194Z,1012.91
2022-11-02T01:20:03.202Z,1012.88
2022-11-02T01:21:03.212Z,1012.90
2022-11-02T01:22:03.220Z,1012.88
2022-11-02T01:23:03.223Z,1012.88
2022-11-02T01:24:03.223Z,1012.89
2022-11-02T01:25:03.240Z,1012.91
2022-11-02T01:26:03.232Z,1012.89
2022-11-02T01:27:03.247Z,1012.87
2022-11-02T01:28:03.452Z,1012.89
2022-11-02T01:29:03.255Z,1012.92
2022-11-02T01:30:03.253Z,1012.93
2022-11-02T01:31:03.266Z,1012.95
2022-11-02T01:32:03.270Z,1012.96
2022-11-02T01:33:03.275Z,1012.95
2022-11-02T01:34:03.279Z,1012.91
2022-11-02T01:35:03.314Z,1012.89
2022-11-02T01:36:03.284Z,1012.88
2022-11-02T01:37:03.288Z,1012.86
2022-11-02T01:38:03.726Z,1012.85
2022-11-02T01:39:03.307Z,1012.84
2022-11-02T01:40:03.311Z,1012.85
2022-11-02T01:41:03.317Z,1012.82
2022-11-02T01:42:03.312Z,1012.84
2022-11-02T01:43:03.327Z,1012.81
2022-11-02T01:44:03.354Z,1012.79
2022-11-02T01:45:03.328Z,1012.81
2022-11-02T01:46:03.345Z,1012.80
2022-11-02T01:47:03.338Z,1012.77
2022-11-02T01:48:03.798Z,1012.78
2022-11-02T01:49:03.355Z,1012.74
2022-11-02T01:50:03.364Z,1012.73
2022-11-02T01:51:03.373Z,1012.67
2022-11-02T01:52:03.372Z,1012.62
2022-11-02T01:53:03.375Z,1012.62
2022-11-02T01:54:03.381Z,1012.58
2022-11-02T01:55:03.382Z,1012.59
2022-11-02T01:56:03.393Z,1012.57
2022-11-02T01:57:03.396Z,1012.54
2022-11-02T01:58:03.830Z,1012.55
2022-11-02T01:59:03.401Z,1012.52
2022-11-02T02:00:03.429Z,1012.56
2022-11-02T02:01:03.417Z,1012.54
2022-11-02T02:02:03.558Z,1012.59
2022-11-02T02:03:03.428Z,1012.55
2022-11-02T02:04:03.427Z,1012.61
2022-11-02T02:05:03.429Z,1012.63
2022-11-02T02:06:03.437Z,1012.58
2022-11-02T02:07:03.449Z,1012.60
2022-11-02T02:08:03.711Z,1012.59
2022-11-02T02:09:03.460Z,1012.55
2022-11-02T02:10:03.457Z,1012.57
2022-11-02T02:11:03.465Z,1012.58
2022-11-02T02:12:03.474Z,1012.55
2022-11-02T02:13:03.473Z,1012.54
2022-11-02T02:14:03.478Z,1012.56
2022-11-02T02:15:03.492Z,1012.57
2022-11-02T02:16:03.508Z,1012.59
2022-11-02T02:17:03.504Z,1012.59
2022-11-02T02:18:03.988Z,1012.53
2022-11-02T02:19:03.512Z,1012.53
2022-11-02T02:20:03.528Z,1012.55
2022-11-02T02:21:03.514Z,1012.52
2022-11-02T02:22:03.521Z,1012.53
2022-11-02T02:23:03.534Z,1012.50
2022-11-02T02:24:03.529Z,1012.51
2022-11-02T02:25:03.543Z,1012.54
2022-11-02T02:26:03.547Z,1012.50
2022-11-02T02:27:03.542Z,1012.50
2022-11-02T02:28:03.805Z,1012.42
2022-11-02T02:29:03.560Z,1012.46
2022-11-02T02:30:03.567Z,1012.46
2022-11-02T02:31:03.563Z,1012.48
2022-11-02T02:32:03.591Z,1012.46
2022-11-02T02:33:03.581Z,1012.46
2022-11-02T02:34:03.586Z,1012.43
2022-11-02T02:35:03.583Z,1012.45
2022-11-02T02:36:03.591Z,1012.41
2022-11-02T02:37:03.602Z,1012.48
2022-11-02T02:38:04.040Z,1012.45
2022-11-02T02:39:03.639Z,1012.46
2022-11-02T02:40:03.611Z,1012.47
2022-11-02T02:41:03.613Z,1012.45
2022-11-02T02:42:03.627Z,1012.47
2022-11-02T02:43:03.636Z,1012.42
2022-11-02T02:44:03.631Z,1012.41
2022-11-02T02:45:03.635Z,1012.38
2022-11-02T02:46:03.648Z,1012.35
2022-11-02T02:47:03.655Z,1012.34
2022-11-02T02:48:04.241Z,1012.34
2022-11-02T02:49:03.663Z,1012.34
2022-11-02T02:50:03.661Z,1012.35
2022-11-02T02:51:03.675Z,1012.36
2022-11-02T02:52:03.671Z,1012.34
2022-11-02T02:53:03.684Z,1012.33
2022-11-02T02:54:03.680Z,1012.37
2022-11-02T02:55:03.694Z,1012.34
2022-11-02T02:56:03.698Z,1012.30
2022-11-02T02:57:03.696Z,1012.28
2022-11-02T02:58:04.043Z,1012.27
2022-11-02T02:59:03.708Z,1012.24
2022-11-02T03:00:03.718Z,1012.23
2022-11-02T03:01:03.714Z,1012.17
2022-11-02T03:02:03.866Z,1012.19
2022-11-02T03:03:03.725Z,1012.20
2022-11-02T03:04:03.759Z,1012.19
2022-11-02T03:05:03.734Z,1012.19
2022-11-02T03:06:03.749Z,1012.22
2022-11-02T03:07:03.745Z,1012.23
2022-11-02T03:08:04.139Z,1012.22
2022-11-02T03:09:03.763Z,1012.25
2022-11-02T03:10:03.769Z,1012.24
2022-11-02T03:11:03.774Z,1012.21
2022-11-02T03:12:03.776Z,1012.19
2022-11-02T03:13:03.776Z,1012.24
2022-11-02T03:14:03.782Z,1012.22
2022-11-02T03:15:03.796Z,1012.24
2022-11-02T03:16:03.798Z,1012.26
2022-11-02T03:17:03.806Z,1012.23
2022-11-02T03:18:04.158Z,1012.25
2022-11-02T03:19:03.808Z,1012.24
2022-11-02T03:20:03.839Z,1012.22
2022-11-02T03:21:03.818Z,1012.20
2022-11-02T03:22:03.823Z,1012.18
2022-11-02T03:23:03.836Z,1012.22
2022-11-02T03:24:03.840Z,1012.16
2022-11-02T03:25:03.846Z,1012.16
2022-11-02T03:26:03.863Z,1012.12
2022-11-02T03:27:03.859Z,1012.11
2022-11-02T03:28:04.169Z,1012.10
2022-11-02T03:29:03.866Z,1012.10
2022-11-02T03:30:03.871Z,1012.13
2022-11-02T03:31:03.871Z,1012.13
2022-11-02T03:32:03.882Z,1012.10
2022-11-02T03:33:03.886Z,1012.13
2022-11-02T03:34:03.892Z,1012.16
2022-11-02T03:35:03.902Z,1012.11
2022-11-02T03:36:03.930Z,1012.17
2022-11-02T03:37:03.977Z,1012.18
2022-11-02T03:38:04.165Z,1012.16
2022-11-02T03:39:03.918Z,1012.12
2022-11-02T03:40:03.928Z,1012.17
2022-11-02T03:41:03.921Z,1012.15
2022-11-02T03:42:03.935Z,1012.15
2022-11-02T03:43:03.935Z,1012.15
2022-11-02T03:44:03.939Z,1012.19
2022-11-02T03:45:03.942Z,1012.18
2022-11-02T03:46:03.957Z,1012.20
2022-11-02T03:47:03.953Z,1012.22
2022-11-02T03:48:04.363Z,1012.25
2022-11-02T03:49:07.601Z,1012.21
2022-11-02T03:50:03.977Z,1012.20
2022-11-02T03:51:03.975Z,1012.22
2022-11-02T03:52:04.010Z,1012.21
2022-11-02T03:53:03.994Z,1012.26
2022-11-02T03:54:03.990Z,1012.25
2022-11-02T03:55:03.997Z,1012.28
2022-11-02T03:56:04.009Z,1012.26
2022-11-02T03:58:04.317Z,1012.19
2022-11-02T03:59:04.025Z,1012.18
2022-11-02T04:00:04.023Z,1012.17
2022-11-02T04:01:04.035Z,1012.20
2022-11-02T04:02:04.172Z,1012.17
2022-11-02T04:03:04.057Z,1012.16
2022-11-02T04:04:04.052Z,1012.16
2022-11-02T04:05:04.061Z,1012.19
2022-11-02T04:06:04.062Z,1012.15
2022-11-02T04:07:04.060Z,1012.20
2022-11-02T04:08:04.469Z,1012.16
2022-11-02T04:09:04.071Z,1012.15
2022-11-02T04:10:04.094Z,1012.23
2022-11-02T04:11:04.080Z,1012.25
2022-11-02T04:12:04.094Z,1012.28
2022-11-02T04:13:04.089Z,1012.26
2022-11-02T04:14:04.108Z,1012.26
2022-11-02T04:15:04.101Z,1012.25
2022-11-02T04:16:04.108Z,1012.23
2022-11-02T04:17:04.116Z,1012.25
2022-11-02T04:18:04.379Z,1012.27
2022-11-02T04:19:04.128Z,1012.29
2022-11-02T04:20:04.134Z,1012.21
2022-11-02T04:21:04.139Z,1012.17
2022-11-02T04:22:04.146Z,1012.20
2022-11-02T04:23:04.150Z,1012.17
2022-11-02T04:24:04.178Z,1012.18
2022-11-02T04:25:04.152Z,1012.19
2022-11-02T04:26:04.157Z,1012.20
2022-11-02T04:27:04.171Z,1012.25
2022-11-02T04:28:04.502Z,1012.24
2022-11-02T04:29:04.174Z,1012.26
2022-11-02T04:30:04.179Z,1012.20
2022-11-02T04:31:04.195Z,1012.17
2022-11-02T04:32:04.188Z,1012.21
2022-11-02T04:33:04.202Z,1012.17
2022-11-02T04:34:04.205Z,1012.24
2022-11-02T04:35:04.211Z,1012.17
2022-11-02T04:36:04.208Z,1012.16
2022-11-02T04:37:04.218Z,1012.16
2022-11-02T04:38:04.585Z,1012.18
2022-11-02T04:39:04.231Z,1012.16
2022-11-02T04:40:04.255Z,1012.11
2022-11-02T04:41:04.243Z,1012.15
2022-11-02T04:42:04.245Z,1012.13
2022-11-02T04:43:04.252Z,1012.10
2022-11-02T04:44:04.260Z,1012.10
2022-11-02T04:45:04.260Z,1012.11
2022-11-02T04:46:04.274Z,1012.08
2022-11-02T04:47:04.266Z,1012.12
2022-11-02T04:48:04.571Z,1012.05
2022-11-02T04:49:04.273Z,1012.09
2022-11-02T04:50:04.288Z,1012.13
2022-11-02T04:51:04.291Z,1012.16
2022-11-02T04:52:04.299Z,1012.18
2022-11-02T04:53:04.301Z,1012.16
2022-11-02T04:54:04.302Z,1012.17
2022-11-02T04:55:04.305Z,1012.21
2022-11-02T04:56:04.330Z,1012.22
2022-11-02T04:57:04.323Z,1012.23
2022-11-02T04:58:04.727Z,1012.23
2022-11-02T04:59:04.325Z,1012.26
2022-11-02T05:00:04.339Z,1012.29
2022-11-02T05:01:04.344Z,1012.26
2022-11-02T05:02:04.533Z,1012.28
2022-11-02T05:03:08.119Z,1012.28
2022-11-02T05:04:04.359Z,1012.23
2022-11-02T05:05:04.364Z,1012.23
2022-11-02T05:06:04.372Z,1012.23
2022-11-02T05:07:04.367Z,1012.25
2022-11-02T05:08:04.702Z,1012.26
2022-11-02T05:09:04.385Z,1012.21
2022-11-02T05:10:04.382Z,1012.26
2022-11-02T05:11:04.387Z,1012.24
2022-11-02T05:12:04.418Z,1012.22
2022-11-02T05:13:04.397Z,1012.26
2022-11-02T05:14:04.409Z,1012.27
2022-11-02T05:15:04.422Z,1012.27
2022-11-02T05:16:04.420Z,1012.28
2022-11-02T05:17:04.417Z,1012.25
2022-11-02T05:18:04.776Z,1012.23
2022-11-02T05:19:06.917Z,1012.27
2022-11-02T05:20:04.448Z,1012.27
2022-11-02T05:21:04.437Z,1012.28
2022-11-02T05:22:04.445Z,1012.31
2022-11-02T05:23:04.866Z,1012.30
2022-11-02T05:24:04.454Z,1012.28
2022-11-02T05:25:04.459Z,1012.28
2022-11-02T05:26:04.465Z,1012.31
2022-11-02T05:27:04.468Z,1012.34
2022-11-02T05:28:04.501Z,1012.27
2022-11-02T05:29:04.487Z,1012.32
2022-11-02T05:30:04.490Z,1012.28
2022-11-02T05:31:04.498Z,1012.32
2022-11-02T05:32:04.496Z,1012.29
2022-11-02T05:33:04.884Z,1012.31
2022-11-02T05:34:04.503Z,1012.24
2022-11-02T05:35:04.518Z,1012.29
2022-11-02T05:36:04.523Z,1012.31
2022-11-02T05:37:04.525Z,1012.31
2022-11-02T05:38:04.533Z,1012.36
2022-11-02T05:39:04.541Z,1012.36
2022-11-02T05:40:04.536Z,1012.36
2022-11-02T05:41:04.539Z,1012.34
2022-11-02T05:42:47.095Z,1012.42
2022-11-02T05:43:47.109Z,1012.40
2022-11-02T05:44:47.105Z,1012.44
2022-11-02T05:45:47.109Z,1012.43
2022-11-02T05:46:47.108Z,1012.53
2022-11-02T05:47:47.118Z,1012.49
2022-11-02T05:48:47.117Z,1012.51
2022-11-02T05:49:47.131Z,1012.55
2022-11-02T05:50:47.136Z,1012.53
2022-11-02T05:51:47.139Z,1012.57
2022-11-02T05:52:47.138Z,1012.50
2022-11-02T05:53:47.144Z,1012.52
2022-11-02T05:54:47.149Z,1012.51
2022-11-02T05:55:47.156Z,1012.51
2022-11-02T05:56:47.158Z,1012.50
2022-11-02T05:57:47.166Z,1012.49
2022-11-02T05:58:47.238Z,1012.51
2022-11-02T05:59:49.385Z,1012.51
2022-11-02T06:00:47.186Z,1012.48
2022-11-02T06:01:47.321Z,1012.48
2022-11-02T06:02:47.195Z,1012.56
2022-11-02T06:03:52.979Z,1012.59
2022-11-02T06:04:47.239Z,1012.51
2022-11-02T06:05:47.257Z,1012.51
2022-11-02T06:06:47.216Z,1012.43
2022-11-02T06:07:47.223Z,1012.44
2022-11-02T06:08:47.223Z,1012.41
2022-11-02T06:09:47.232Z,1012.50
2022-11-02T06:10:47.237Z,1012.52
2022-11-02T06:11:47.241Z,1012.50
2022-11-02T06:12:47.243Z,1012.55
2022-11-02T06:13:47.253Z,1012.53
2022-11-02T06:14:47.254Z,1012.48
2022-11-02T06:15:47.274Z,1012.50
2022-11-02T06:16:47.261Z,1012.51
2022-11-02T06:17:47.274Z,1012.50
2022-11-02T06:18:47.280Z,1012.49
2022-11-02T06:19:47.284Z,1012.48
2022-11-02T06:20:47.288Z,1012.48
2022-11-02T06:21:48.535Z,1012.47
2022-11-02T06:22:47.292Z,1012.45
2022-11-02T06:23:47.385Z,1012.46
2022-11-02T06:24:47.301Z,1012.44
2022-11-02T06:25:47.307Z,1012.45
2022-11-02T06:26:47.320Z,1012.43
2022-11-02T06:27:47.318Z,1012.43
2022-11-02T06:28:47.324Z,1012.46
2022-11-02T06:29:47.328Z,1012.46
2022-11-02T06:30:47.342Z,1012.52
2022-11-02T06:31:47.358Z,1012.53
2022-11-02T06:32:47.352Z,1012.55
2022-11-02T06:33:47.357Z,1012.52
2022-11-02T06:34:47.358Z,1012.59
2022-11-02T06:35:47.366Z,1012.60
2022-11-02T06:36:47.365Z,1012.62
2022-11-02T06:37:47.375Z,1012.61
2022-11-02T06:38:47.376Z,1012.65
2022-11-02T06:39:47.380Z,1012.61
2022-11-02T06:40:47.394Z,1012.64
2022-11-02T06:41:47.398Z,1012.66
2022-11-02T06:43:03.208Z,1012.66
2022-11-02T06:43:47.414Z,1012.68
2022-11-02T06:44:47.407Z,1012.65
2022-11-02T06:45:47.417Z,1012.74
2022-11-02T06:46:47.417Z,1012.72
2022-11-02T06:47:47.450Z,1012.71
2022-11-02T06:48:47.436Z,1012.67
2022-11-02T06:49:47.438Z,1012.67
2022-11-02T06:50:47.449Z,1012.75
2022-11-02T06:51:47.443Z,1012.81
2022-11-02T06:52:47.450Z,1012.84
2022-11-02T06:53:47.462Z,1012.86
2022-11-02T06:54:47.458Z,1012.86
2022-11-02T06:56:55.054Z,1012.87
2022-11-02T06:57:55.070Z,1012.86
2022-11-02T06:58:55.072Z,1012.92
2022-11-02T06:59:55.106Z,1012.85
2022-11-02T07:00:55.192Z,1012.87
2022-11-02T07:04:20.975Z,1012.79
2022-11-02T07:05:20.935Z,1012.83
2022-11-02T07:06:20.949Z,1012.72
2022-11-02T07:07:20.947Z,1012.76
2022-11-02T07:09:08.512Z,1012.75
2022-11-02T07:10:08.508Z,1012.77
2022-11-02T07:11:08.520Z,1012.74
2022-11-02T07:12:08.528Z,1012.75
2022-11-02T07:13:08.531Z,1012.80
2022-11-02T07:14:08.530Z,1012.91
2022-11-02T07:15:08.542Z,1012.85
2022-11-02T07:16:08.540Z,1012.91
2022-11-02T07:17:08.553Z,1012.96
2022-11-02T07:18:08.561Z,1013.00
2022-11-02T07:19:11.785Z,1012.96
2022-11-02T07:20:08.582Z,1012.93
2022-11-02T07:21:08.652Z,1012.91
2022-11-02T07:22:08.573Z,1012.91
2022-11-02T07:23:09.051Z,1012.95
2022-11-02T07:24:08.593Z,1012.98
2022-11-02T07:25:51.143Z,1012.89
2022-11-02T07:26:51.140Z,1012.93
2022-11-02T09:12:37.398Z,1013.07
2022-11-02T09:13:37.422Z,1013.06
2022-11-02T09:14:37.399Z,1013.07
2022-11-02T09:15:37.417Z,1013.05
2022-11-02T09:18:10.071Z,1013.00
2022-11-02T09:19:10.108Z,1012.96
2022-11-02T09:22:15.536Z,1013.04
2022-11-02T09:23:15.551Z,1012.92
2022-11-02T09:24:15.562Z,1012.94
2022-11-02T10:07:52.888Z,1013.25
2022-11-02T10:08:52.879Z,1013.28
2022-11-02T10:09:52.889Z,1013.23
2022-11-02T10:10:52.903Z,1013.21
2022-11-02T10:11:52.903Z,1013.26
2022-11-02T10:12:52.923Z,1013.24
2022-11-02T10:13:56.653Z,1013.27
2022-11-02T10:14:52.948Z,1013.32
2022-11-02T10:15:52.948Z,1013.34
2022-11-02T10:16:52.970Z,1013.35
2022-11-02T10:17:52.971Z,1013.34
2022-11-02T10:18:52.990Z,1013.33
2022-11-02T10:32:38.826Z,1013.50
2022-11-02T10:33:38.771Z,1013.48
2022-11-02T10:34:38.782Z,1013.49
2022-11-02T10:35:57.756Z,1013.43
2022-11-02T10:36:38.800Z,1013.45
2022-11-02T10:37:38.814Z,1013.40
2022-11-02T10:38:38.822Z,1013.43
2022-11-02T10:39:38.825Z,1013.42
2022-11-02T10:40:38.841Z,1013.46
2022-11-02T10:41:38.847Z,1013.46
2022-11-02T10:42:38.863Z,1013.51
2022-11-02T10:43:38.868Z,1013.66
2022-11-02T10:44:38.875Z,1013.55
2022-11-02T10:45:38.898Z,1013.53
2022-11-02T10:46:38.905Z,1013.50
2022-11-02T10:47:38.918Z,1013.50
2022-11-02T10:48:38.944Z,1013.49
2022-11-02T10:49:38.929Z,1013.57
2022-11-02T10:50:38.941Z,1013.57
2022-11-02T10:51:38.957Z,1013.56
2022-11-02T10:52:38.965Z,1013.53
2022-11-02T10:53:41.593Z,1013.56
2022-11-02T10:54:38.992Z,1013.60
2022-11-02T10:55:39.001Z,1013.58
2022-11-02T10:56:39.012Z,1013.59
2022-11-02T10:57:39.014Z,1013.59
2022-11-02T10:58:39.033Z,1013.57
2022-11-02T10:59:39.037Z,1013.61
2022-11-02T11:00:39.106Z,1013.58
2022-11-02T11:01:39.081Z,1013.56
2022-11-02T11:02:39.079Z,1013.54
2022-11-02T11:03:39.086Z,1013.53
2022-11-02T11:04:39.113Z,1013.55
2022-11-02T11:05:39.103Z,1013.48
2022-11-02T11:06:39.119Z,1013.57
2022-11-02T11:07:39.121Z,1013.57
2022-11-02T11:08:39.138Z,1013.56
2022-11-02T11:09:42.845Z,1013.56
2022-11-02T11:10:39.159Z,1013.54
2022-11-02T11:11:39.163Z,1013.56
2022-11-02T11:12:39.175Z,1013.58
2022-11-02T11:15:46.435Z,1013.57
2022-11-02T11:16:39.221Z,1013.59
2022-11-02T11:19:40.117Z,1013.59
2022-11-02T11:20:39.279Z,1013.63
2022-11-02T11:21:39.267Z,1013.62
2022-11-02T11:22:39.287Z,1013.59
2022-11-02T11:23:39.296Z,1013.56
2022-11-02T11:24:39.342Z,1013.48
2022-11-02T11:25:39.319Z,1013.48
2022-11-02T11:26:39.325Z,1013.46
2022-11-02T11:27:39.342Z,1013.49
2022-11-02T11:28:39.344Z,1013.37
2022-11-02T11:29:39.359Z,1013.45
2022-11-02T11:30:58.835Z,1013.44
2022-11-02T11:31:39.390Z,1013.47
2022-11-02T11:40:15.251Z,1013.40
2022-11-02T11:41:15.236Z,1013.40
2022-11-02T14:02:26.789Z,1014.62
2022-11-02T14:03:26.674Z,1014.63
2022-11-02T14:04:26.672Z,1014.64
2022-11-02T14:05:26.760Z,1014.68
2022-11-02T14:06:26.681Z,1014.66
2022-11-02T14:07:26.697Z,1014.61
2022-11-02T14:08:26.706Z,1014.66
2022-11-02T14:09:26.706Z,1014.65
2022-11-02T14:10:26.723Z,1014.67
2022-11-02T14:11:26.729Z,1014.72
2022-11-02T14:12:26.747Z,1014.71
2022-11-02T14:13:26.742Z,1014.69
2022-11-02T14:14:26.763Z,1014.74
2022-11-02T14:15:26.821Z,1014.78
2022-11-02T14:17:39.394Z,1014.75
2022-11-02T14:18:39.379Z,1014.72
2022-11-02T14:19:39.387Z,1014.70
2022-11-02T14:20:39.399Z,1014.65
2022-11-02T14:21:39.404Z,1014.68
2022-11-02T14:22:39.423Z,1014.70
2022-11-02T14:23:39.423Z,1014.67
2022-11-02T14:24:39.434Z,1014.64
2022-11-02T14:25:39.442Z,1014.59
2022-11-02T14:27:22.006Z,1014.70
2022-11-02T14:28:22.014Z,1014.72
2022-11-02T14:29:22.023Z,1014.74
2022-11-02T14:30:22.027Z,1014.73
2022-11-02T14:31:22.034Z,1014.70
2022-11-02T14:32:22.055Z,1014.75
2022-11-02T14:33:22.076Z,1014.79
2022-11-02T14:34:22.066Z,1014.78
2022-11-02T14:35:22.076Z,1014.75
2022-11-02T14:36:22.087Z,1014.76
2022-11-02T14:37:22.103Z,1014.75
2022-11-02T14:38:22.117Z,1014.73
2022-11-02T14:40:09.679Z,1014.73
2022-11-02T14:41:09.687Z,1014.78
2022-11-02T14:42:09.688Z,1014.77
2022-11-02T14:43:09.706Z,1014.78
2022-11-02T14:44:09.714Z,1014.76
2022-11-02T14:45:09.729Z,1014.74
2022-11-02T14:46:09.863Z,1014.80
2022-11-02T14:47:09.734Z,1014.80
2022-11-02T14:48:09.754Z,1014.78
2022-11-02T14:49:09.781Z,1014.85
2022-11-02T14:50:09.772Z,1014.86
2022-11-02T14:51:09.772Z,1014.84
2022-11-02T14:52:09.788Z,1014.89
2022-11-02T14:53:09.879Z,1014.89
2022-11-02T14:54:09.806Z,1014.94
2022-11-02T14:55:09.812Z,1014.92
2022-11-02T14:56:09.824Z,1014.92
2022-11-02T14:57:09.829Z,1014.91
2022-11-02T14:58:11.356Z,1014.92
2022-11-02T14:59:09.847Z,1014.92
2022-11-02T15:00:09.857Z,1014.96
2022-11-02T15:01:09.868Z,1015.00
2022-11-02T15:02:09.876Z,1014.99
2022-11-02T15:03:09.882Z,1015.03
2022-11-02T15:04:09.886Z,1015.03
2022-11-02T15:05:09.913Z,1015.07
2022-11-02T15:06:09.899Z,1015.05
2022-11-02T15:07:09.917Z,1015.04
2022-11-02T15:08:09.924Z,1015.07
2022-11-02T15:09:09.926Z,1015.09
2022-11-02T15:10:09.933Z,1015.12
2022-11-02T15:11:09.942Z,1015.12
2022-11-02T15:12:09.950Z,1015.11
2022-11-02T15:13:13.132Z,1015.06
2022-11-02T15:14:09.966Z,1015.07
2022-11-02T15:15:09.984Z,1015.04
2022-11-02T15:16:09.982Z,1015.06
2022-11-02T15:17:10.001Z,1015.03
2022-11-02T15:18:09.998Z,1015.04
2022-11-02T15:19:10.015Z,1015.08
2022-11-02T15:20:10.022Z,1015.08
2022-11-02T15:21:10.055Z,1015.11
2022-11-02T15:22:10.029Z,1015.08
2022-11-02T15:23:14.387Z,1015.13
2022-11-02T15:24:12.328Z,1015.12
2022-11-02T15:25:10.055Z,1015.13
2022-11-02T15:26:10.062Z,1015.14
2022-11-02T15:27:10.080Z,1015.16
2022-11-02T15:28:10.085Z,1015.13
2022-11-02T15:29:10.086Z,1015.15
2022-11-02T15:30:10.096Z,1015.14
2022-11-02T15:31:10.102Z,1015.15
2022-11-02T15:32:10.118Z,1015.15
2022-11-02T15:33:10.376Z,1015.21
2022-11-02T15:34:10.141Z,1015.19
2022-11-02T15:35:10.133Z,1015.17
2022-11-02T15:36:10.141Z,1015.18
2022-11-02T15:37:10.173Z,1015.20
2022-11-02T15:38:17.561Z,1015.23
2022-11-02T15:39:10.172Z,1015.18
2022-11-02T15:40:10.182Z,1015.16
2022-11-02T15:41:10.178Z,1015.15
2022-11-02T15:42:10.189Z,1015.17
2022-11-02T15:43:10.202Z,1015.18
2022-11-02T15:44:10.203Z,1015.16
2022-11-02T15:45:26.736Z,1015.20
2022-11-02T15:46:10.326Z,1015.17
2022-11-02T15:47:10.225Z,1015.19
2022-11-02T15:48:10.243Z,1015.22
2022-11-02T15:49:10.242Z,1015.22
2022-11-02T15:50:10.257Z,1015.24
2022-11-02T15:51:10.254Z,1015.19
2022-11-02T15:52:10.273Z,1015.24
2022-11-02T15:53:22.992Z,1015.19
2022-11-02T15:54:10.287Z,1015.21
2022-11-02T15:55:10.293Z,1015.16
2022-11-02T15:56:10.294Z,1015.28
2022-11-02T15:57:10.301Z,1015.23
2022-11-02T15:58:10.314Z,1015.24
2022-11-02T15:59:10.323Z,1015.21
2022-11-02T16:00:10.323Z,1015.24
2022-11-02T16:01:10.454Z,1015.26
2022-11-02T16:02:10.394Z,1015.27
2022-11-02T16:03:10.353Z,1015.29
2022-11-02T16:04:10.459Z,1015.30
2022-11-02T16:05:10.357Z,1015.28
2022-11-02T16:06:10.375Z,1015.27
2022-11-02T16:07:10.379Z,1015.27
2022-11-02T16:08:11.385Z,1015.31
2022-11-02T16:09:10.415Z,1015.28
2022-11-02T16:10:10.396Z,1015.28
2022-11-02T16:11:10.408Z,1015.30
2022-11-02T16:12:10.410Z,1015.30
2022-11-02T16:13:10.422Z,1015.33
2022-11-02T16:14:10.428Z,1015.28
2022-11-02T16:15:10.431Z,1015.33
2022-11-02T16:16:10.447Z,1015.30
2022-11-02T16:17:10.451Z,1015.27
2022-11-02T16:18:10.450Z,1015.31
2022-11-02T16:19:10.460Z,1015.29
2022-11-02T16:20:10.466Z,1015.24
2022-11-02T16:21:10.473Z,1015.28
2022-11-02T16:22:10.482Z,1015.30
2022-11-02T16:23:10.495Z,1015.29
2022-11-02T16:24:10.495Z,1015.28
2022-11-02T16:25:10.543Z,1015.31
2022-11-02T16:26:10.513Z,1015.34
2022-11-02T16:27:10.524Z,1015.33
2022-11-02T16:28:10.522Z,1015.35
2022-11-02T16:29:10.536Z,1015.36
2022-11-02T16:30:10.536Z,1015.36
2022-11-02T16:31:17.991Z,1015.36
2022-11-02T16:32:10.553Z,1015.40
2022-11-02T16:33:10.563Z,1015.41
2022-11-02T16:34:10.564Z,1015.42
2022-11-02T16:35:10.575Z,1015.41
2022-11-02T16:36:10.584Z,1015.45
2022-11-02T16:37:10.700Z,1015.43
2022-11-02T16:38:10.597Z,1015.45
2022-11-02T16:39:10.604Z,1015.46
2022-11-02T16:40:10.615Z,1015.44
2022-11-02T16:41:10.637Z,1015.50
2022-11-02T16:42:10.625Z,1015.51
2022-11-02T16:43:10.630Z,1015.51
2022-11-02T16:44:10.638Z,1015.50
2022-11-02T16:45:10.639Z,1015.55
2022-11-02T16:46:10.654Z,1015.55
2022-11-02T16:47:10.650Z,1015.56
2022-11-02T16:48:10.663Z,1015.57
2022-11-02T16:49:10.671Z,1015.52
2022-11-02T16:50:10.678Z,1015.55
2022-11-02T16:51:14.605Z,1015.57
2022-11-02T16:52:10.692Z,1015.59
2022-11-02T16:53:10.689Z,1015.62
2022-11-02T16:54:10.700Z,1015.60
2022-11-02T16:55:10.710Z,1015.62
2022-11-02T16:56:10.714Z,1015.62
2022-11-02T16:57:12.028Z,1015.63
2022-11-02T16:58:10.722Z,1015.65
2022-11-02T16:59:10.743Z,1015.67
2022-11-02T17:00:10.739Z,1015.71
2022-11-02T17:01:10.891Z,1015.67
2022-11-02T17:02:10.903Z,1015.72
2022-11-02T17:03:10.767Z,1015.75
2022-11-02T17:04:10.764Z,1015.77
2022-11-02T17:05:10.800Z,1015.77
2022-11-02T17:06:10.784Z,1015.81
2022-11-02T17:07:10.783Z,1015.77
2022-11-02T17:08:10.797Z,1015.83
2022-11-02T17:09:10.805Z,1015.83
2022-11-02T17:10:10.818Z,1015.86
2022-11-02T17:11:10.812Z,1015.82
2022-11-02T17:12:10.823Z,1015.83
2022-11-02T17:13:10.854Z,1015.83
2022-11-02T17:14:10.838Z,1015.85
2022-11-02T17:15:10.846Z,1015.85
2022-11-02T17:16:10.844Z,1015.84
2022-11-02T17:17:10.849Z,1015.83
2022-11-02T17:18:10.857Z,1015.83
2022-11-02T17:19:15.481Z,1015.82
2022-11-02T17:20:10.876Z,1015.84
2022-11-02T17:21:10.877Z,1015.86
2022-11-02T17:22:10.891Z,1015.88
2022-11-02T17:23:10.904Z,1015.92
2022-11-02T17:24:10.896Z,1015.92
2022-11-02T17:25:10.911Z,1015.92
2022-11-02T17:26:10.916Z,1015.91
2022-11-02T17:27:10.918Z,1015.92
2022-11-02T17:28:10.925Z,1015.91
2022-11-02T17:29:10.950Z,1015.87
2022-11-02T17:30:10.944Z,1015.84
2022-11-02T17:31:10.941Z,1015.83
2022-11-02T17:32:10.950Z,1015.82
2022-11-02T17:33:10.953Z,1015.81
2022-11-02T17:34:10.971Z,1015.81
2022-11-02T17:35:10.968Z,1015.80
2022-11-02T17:36:10.983Z,1015.76
2022-11-02T17:37:10.987Z,1015.81
2022-11-02T17:38:10.994Z,1015.79
2022-11-02T17:39:10.996Z,1015.77
2022-11-02T17:40:11.007Z,1015.76
2022-11-02T17:41:11.012Z,1015.73
2022-11-02T17:42:11.021Z,1015.76
2022-11-02T17:43:11.025Z,1015.77
2022-11-02T17:44:11.034Z,1015.74
2022-11-02T17:46:11.047Z,1015.72
2022-11-02T17:47:11.044Z,1015.70
2022-11-02T17:48:11.062Z,1015.71
2022-11-02T17:49:11.059Z,1015.68
2022-11-02T17:50:11.071Z,1015.70
2022-11-02T17:51:11.073Z,1015.72
2022-11-02T17:52:11.085Z,1015.74
2022-11-02T17:53:11.092Z,1015.73
2022-11-02T17:54:11.090Z,1015.74
2022-11-02T17:55:11.104Z,1015.78
2022-11-02T17:56:11.104Z,1015.80
2022-11-02T17:57:11.109Z,1015.81
2022-11-02T17:58:11.117Z,1015.79
2022-11-02T17:59:11.121Z,1015.78
2022-11-02T18:00:11.136Z,1015.82
2022-11-02T18:01:11.322Z,1015.81
2022-11-02T18:02:11.305Z,1015.79
2022-11-02T18:03:11.191Z,1015.78
2022-11-02T18:04:11.160Z,1015.83
2022-11-02T18:05:11.158Z,1015.79
2022-11-02T18:06:11.173Z,1015.80
2022-11-02T18:07:11.181Z,1015.79
2022-11-02T18:08:11.186Z,1015.77
2022-11-02T18:09:11.185Z,1015.77
2022-11-02T18:10:11.202Z,1015.77
2022-11-02T18:11:11.206Z,1015.75
2022-11-02T18:12:11.210Z,1015.71